createdAt,value
2022-11-06T00:00:33.949Z,3.96
2022-11-06T00:01:34.015Z,4.00
2022-11-06T00:02:33.995Z,3.98
2022-11-06T00:03:33.916Z,3.96
2022-11-06T00:04:33.912Z,3.98
2022-11-06T00:05:33.906Z,4.04
2022-11-06T00:06:33.890Z,3.96
2022-11-06T00:07:33.893Z,3.98
2022-11-06T00:08:33.880Z,4.04
2022-11-06T00:09:33.839Z,4.02
2022-11-06T00:10:33.837Z,3.98
2022-11-06T00:11:33.844Z,4.02
2022-11-06T00:12:33.825Z,4.04
2022-11-06T00:13:33.859Z,4.05
2022-11-06T00:14:33.806Z,4.11
2022-11-06T00:15:33.778Z,4.04
2022-11-06T00:16:33.776Z,4.14
2022-11-06T00:17:33.781Z,4.12
2022-11-06T00:18:33.741Z,4.20
2022-11-06T00:19:33.741Z,4.20
2022-11-06T00:20:33.719Z,4.09
2022-11-06T00:21:33.721Z,4.18
2022-11-06T00:22:33.772Z,4.18
2022-11-06T00:23:33.702Z,4.24
2022-11-06T00:24:33.675Z,4.16
2022-11-06T00:25:33.669Z,4.16
2022-11-06T00:26:33.651Z,4.20
2022-11-06T00:27:33.679Z,4.23
2022-11-06T00:28:33.654Z,4.30
2022-11-06T00:29:33.638Z,4.32
2022-11-06T00:30:33.612Z,4.26
2022-11-06T00:31:33.612Z,4.33
2022-11-06T00:32:33.618Z,4.32
2022-11-06T00:33:33.598Z,4.42
2022-11-06T00:34:33.581Z,4.41
2022-11-06T00:35:33.553Z,4.48
2022-11-06T00:36:33.549Z,4.51
2022-11-06T00:37:33.535Z,4.44
2022-11-06T00:38:33.560Z,4.44
2022-11-06T00:39:33.536Z,4.42
2022-11-06T00:40:33.532Z,4.33
2022-11-06T00:41:33.488Z,4.30
2022-11-06T00:42:33.487Z,4.34
2022-11-06T00:43:33.466Z,4.30
2022-11-06T00:44:33.458Z,4.14
2022-11-06T00:45:33.464Z,4.08
2022-11-06T00:46:33.461Z,4.08
2022-11-06T00:47:33.468Z,3.98
2022-11-06T00:48:33.404Z,4.04
2022-11-06T00:49:33.413Z,3.87
2022-11-06T00:50:33.396Z,3.84
2022-11-06T00:51:33.396Z,3.87
2022-11-06T00:52:33.360Z,3.91
2022-11-06T00:53:33.367Z,3.88
2022-11-06T00:54:33.361Z,3.88
2022-11-06T00:55:33.345Z,3.90
2022-11-06T00:56:33.336Z,3.93
2022-11-06T00:57:33.329Z,3.86
2022-11-06T00:58:33.328Z,3.93
2022-11-06T00:59:33.306Z,3.96
2022-11-06T01:00:33.271Z,3.91
2022-11-06T01:01:33.468Z,4.00
2022-11-06T01:02:33.576Z,3.90
2022-11-06T01:03:33.238Z,3.93
2022-11-06T01:04:33.224Z,4.02
2022-11-06T01:05:33.213Z,3.98
2022-11-06T01:06:33.211Z,3.96
2022-11-06T01:07:33.226Z,3.96
2022-11-06T01:08:33.199Z,3.90
2022-11-06T01:09:33.196Z,3.96
2022-11-06T01:10:33.174Z,3.88
2022-11-06T01:11:52.519Z,3.90
2022-11-06T01:12:34.220Z,3.86
2022-11-06T01:13:33.234Z,3.84
2022-11-06T01:14:33.133Z,3.84
2022-11-06T01:15:33.136Z,3.80
2022-11-06T01:16:33.116Z,3.83
2022-11-06T01:17:33.108Z,3.80
2022-11-06T01:18:33.077Z,3.70
2022-11-06T01:19:33.087Z,3.79
2022-11-06T01:20:33.064Z,3.84
2022-11-06T01:21:33.046Z,3.86
2022-11-06T01:22:33.050Z,3.84
2022-11-06T01:23:33.350Z,3.80
2022-11-06T01:24:33.087Z,3.83
2022-11-06T01:25:33.002Z,3.90
2022-11-06T01:26:39.319Z,3.88
2022-11-06T01:27:34.011Z,3.90
2022-11-06T01:28:32.990Z,3.79
2022-11-06T01:29:32.981Z,3.76
2022-11-06T01:30:32.956Z,3.73
2022-11-06T01:31:32.958Z,3.66
2022-11-06T01:32:32.916Z,3.66
2022-11-06T01:33:32.966Z,3.65
2022-11-06T01:34:32.929Z,3.70
2022-11-06T01:35:32.888Z,3.66
2022-11-06T01:36:32.899Z,3.68
2022-11-06T01:37:32.902Z,3.70
2022-11-06T01:38:32.853Z,3.70
2022-11-06T01:39:32.848Z,3.66
2022-11-06T01:40:32.831Z,3.58
2022-11-06T01:41:32.827Z,3.57
2022-11-06T01:42:32.945Z,3.62
2022-11-06T01:43:32.788Z,3.43
2022-11-06T01:44:32.795Z,3.55
2022-11-06T01:45:32.780Z,3.50
2022-11-06T01:46:32.771Z,3.55
2022-11-06T01:47:32.757Z,3.61
2022-11-06T01:48:32.762Z,3.55
2022-11-06T01:49:32.735Z,3.54
2022-11-06T01:50:32.711Z,3.52
2022-11-06T01:51:32.700Z,3.57
2022-11-06T01:52:32.717Z,3.61
2022-11-06T01:53:32.693Z,3.54
2022-11-06T01:54:32.688Z,3.57
2022-11-06T01:55:32.674Z,3.60
2022-11-06T01:56:32.664Z,3.55
2022-11-06T01:57:32.639Z,3.68
2022-11-06T01:58:32.644Z,3.57
2022-11-06T01:59:32.634Z,3.55
2022-11-06T02:00:32.703Z,3.55
2022-11-06T02:01:32.739Z,3.57
2022-11-06T02:02:32.774Z,3.52
2022-11-06T02:03:32.589Z,3.55
2022-11-06T02:04:32.575Z,3.51
2022-11-06T02:05:32.597Z,3.43
2022-11-06T02:06:32.581Z,3.51
2022-11-06T02:07:32.525Z,3.47
2022-11-06T02:08:32.522Z,3.57
2022-11-06T02:09:32.538Z,3.55
2022-11-06T02:10:32.508Z,3.61
2022-11-06T02:11:32.508Z,3.57
2022-11-06T02:12:32.473Z,3.54
2022-11-06T02:13:32.452Z,3.57
2022-11-06T02:14:32.468Z,3.60
2022-11-06T02:15:32.454Z,3.54
2022-11-06T02:16:32.443Z,3.52
2022-11-06T02:17:32.411Z,3.52
2022-11-06T02:18:32.417Z,3.43
2022-11-06T02:19:32.386Z,3.40
2022-11-06T02:20:32.398Z,3.36
2022-11-06T02:21:32.372Z,3.47
2022-11-06T02:22:32.378Z,3.42
2022-11-06T02:23:32.346Z,3.45
2022-11-06T02:24:32.350Z,3.32
2022-11-06T02:25:32.365Z,3.33
2022-11-06T02:26:32.311Z,3.40
2022-11-06T02:27:32.311Z,3.36
2022-11-06T02:28:32.321Z,3.28
2022-11-06T02:29:50.512Z,3.31
2022-11-06T02:30:33.310Z,3.21
2022-11-06T02:31:32.283Z,3.24
2022-11-06T02:32:32.256Z,3.14
2022-11-06T02:33:32.242Z,3.15
2022-11-06T02:34:32.220Z,3.21
2022-11-06T02:35:32.224Z,3.24
2022-11-06T02:36:32.194Z,3.20
2022-11-06T02:37:32.206Z,3.23
2022-11-06T02:38:32.197Z,3.24
2022-11-06T02:39:32.179Z,3.21
2022-11-06T02:40:32.195Z,3.18
2022-11-06T02:41:32.139Z,3.20
2022-11-06T02:42:32.130Z,3.20
2022-11-06T02:43:32.161Z,3.20
2022-11-06T02:44:32.134Z,3.17
2022-11-06T02:45:32.246Z,3.18
2022-11-06T02:46:32.081Z,3.15
2022-11-06T02:47:32.072Z,3.13
2022-11-06T02:48:32.099Z,3.06
2022-11-06T02:49:32.065Z,3.10
2022-11-06T02:50:32.072Z,3.17
2022-11-06T02:51:32.048Z,3.20
2022-11-06T02:52:32.013Z,3.20
2022-11-06T02:53:32.018Z,3.26
2022-11-06T02:54:32.020Z,3.21
2022-11-06T02:55:32.020Z,3.29
2022-11-06T02:56:31.994Z,3.26
2022-11-06T02:57:31.961Z,3.20
2022-11-06T02:58:31.947Z,3.17
2022-11-06T02:59:31.959Z,3.14
2022-11-06T03:00:31.970Z,3.23
2022-11-06T03:01:32.144Z,3.24
2022-11-06T03:02:32.116Z,3.17
2022-11-06T03:03:31.893Z,3.24
2022-11-06T03:04:31.880Z,3.33
2022-11-06T03:05:31.886Z,3.39
2022-11-06T03:06:31.903Z,3.32
2022-11-06T03:07:31.882Z,3.48
2022-11-06T03:08:31.840Z,3.48
2022-11-06T03:09:31.827Z,3.51
2022-11-06T03:10:31.810Z,3.54
2022-11-06T03:11:31.850Z,3.58
2022-11-06T03:12:31.803Z,3.66
2022-11-06T03:13:31.805Z,3.72
2022-11-06T03:14:31.769Z,3.73
2022-11-06T03:15:31.773Z,3.90
2022-11-06T03:16:31.747Z,3.87
2022-11-06T03:17:32.365Z,3.91
2022-11-06T03:18:31.752Z,3.87
2022-11-06T03:19:31.713Z,3.91
2022-11-06T03:20:31.699Z,4.02
2022-11-06T03:21:31.689Z,4.00
2022-11-06T03:22:31.685Z,4.12
2022-11-06T03:23:31.702Z,4.11
2022-11-06T03:24:31.666Z,4.06
2022-11-06T03:25:31.676Z,4.22
2022-11-06T03:26:31.634Z,4.22
2022-11-06T03:27:31.625Z,4.11
2022-11-06T03:28:31.635Z,4.09
2022-11-06T03:29:31.635Z,4.16
2022-11-06T03:30:31.608Z,4.00
2022-11-06T03:31:31.580Z,4.05
2022-11-06T03:32:31.587Z,4.05
2022-11-06T03:33:31.893Z,4.05
2022-11-06T03:34:31.581Z,4.02
2022-11-06T03:35:31.551Z,4.06
2022-11-06T03:36:31.533Z,4.08
2022-11-06T03:37:31.513Z,4.04
2022-11-06T03:38:31.500Z,4.04
2022-11-06T03:39:31.535Z,4.08
2022-11-06T03:40:31.505Z,4.05
2022-11-06T03:41:31.490Z,4.11
2022-11-06T03:43:46.233Z,4.15
2022-11-06T03:44:46.176Z,4.20
2022-11-06T03:45:46.180Z,4.16
2022-11-06T03:46:46.187Z,4.08
2022-11-06T03:47:46.164Z,4.08
2022-11-06T03:48:46.194Z,4.12
2022-11-06T03:49:46.129Z,4.06
2022-11-06T03:50:46.408Z,4.22
2022-11-06T03:51:46.107Z,4.18
2022-11-06T03:52:46.117Z,4.18
2022-11-06T03:53:46.118Z,4.11
2022-11-06T03:54:46.071Z,4.16
2022-11-06T03:55:46.058Z,4.15
2022-11-06T03:56:46.383Z,4.18
2022-11-06T03:57:46.045Z,4.12
2022-11-06T03:58:46.096Z,4.15
2022-11-06T03:59:46.034Z,4.16
2022-11-06T04:00:46.000Z,4.16
2022-11-06T04:01:46.201Z,4.20
2022-11-06T04:02:46.174Z,4.26
2022-11-06T04:03:45.999Z,4.22
2022-11-06T04:04:46.006Z,4.26
2022-11-06T04:05:45.974Z,4.33
2022-11-06T04:06:45.938Z,4.29
2022-11-06T04:07:45.920Z,4.32
2022-11-06T04:08:45.927Z,4.40
2022-11-06T04:09:45.936Z,4.34
2022-11-06T04:10:45.929Z,4.42
2022-11-06T04:11:45.912Z,4.37
2022-11-06T04:12:45.877Z,4.37
2022-11-06T04:13:45.956Z,4.34
2022-11-06T04:14:45.869Z,4.33
2022-11-06T04:15:45.861Z,4.37
2022-11-06T04:16:45.875Z,4.36
2022-11-06T04:17:45.810Z,4.37
2022-11-06T04:18:45.812Z,4.32
2022-11-06T04:19:45.895Z,4.34
2022-11-06T04:20:45.827Z,4.37
2022-11-06T04:21:45.776Z,4.44
2022-11-06T04:22:45.810Z,4.40
2022-11-06T04:23:45.745Z,4.42
2022-11-06T04:24:45.919Z,4.47
2022-11-06T04:25:45.737Z,4.42
2022-11-06T04:26:45.728Z,4.45
2022-11-06T04:27:45.741Z,4.47
2022-11-06T04:28:45.745Z,4.54
2022-11-06T04:29:45.690Z,4.45
2022-11-06T04:30:45.670Z,4.50
2022-11-06T04:31:45.704Z,4.51
2022-11-06T04:32:45.669Z,4.50
2022-11-06T04:33:45.675Z,4.52
2022-11-06T04:34:45.688Z,4.52
2022-11-06T04:35:45.640Z,4.51
2022-11-06T04:36:45.625Z,4.59
2022-11-06T04:37:45.601Z,4.63
2022-11-06T04:38:45.604Z,4.63
2022-11-06T04:39:45.616Z,4.70
2022-11-06T04:40:45.640Z,4.70
2022-11-06T04:41:45.560Z,4.77
2022-11-06T04:42:45.942Z,4.82
2022-11-06T04:43:45.537Z,4.91
2022-11-06T04:44:45.544Z,4.99
2022-11-06T04:45:45.555Z,4.92
2022-11-06T04:46:45.560Z,4.92
2022-11-06T04:47:45.482Z,5.02
2022-11-06T04:48:45.486Z,4.91
2022-11-06T04:49:45.479Z,4.91
2022-11-06T04:50:45.484Z,5.02
2022-11-06T04:51:45.488Z,4.85
2022-11-06T04:52:45.502Z,4.91
2022-11-06T04:53:45.432Z,4.84
2022-11-06T04:54:45.443Z,4.77
2022-11-06T04:55:45.427Z,4.78
2022-11-06T04:56:46.570Z,4.77
2022-11-06T04:57:45.435Z,4.75
2022-11-06T04:58:45.370Z,4.77
2022-11-06T04:59:45.377Z,4.84
2022-11-06T05:00:45.421Z,4.72
2022-11-06T05:01:45.562Z,4.70
2022-11-06T05:02:45.358Z,4.75
2022-11-06T05:03:45.379Z,4.80
2022-11-06T05:04:45.307Z,4.82
2022-11-06T05:05:45.482Z,4.70
2022-11-06T05:06:45.295Z,4.66
2022-11-06T05:07:45.305Z,4.67
2022-11-06T05:08:45.258Z,4.67
2022-11-06T05:09:45.252Z,4.72
2022-11-06T05:10:45.252Z,4.70
2022-11-06T05:11:45.258Z,4.78
2022-11-06T05:12:45.234Z,4.84
2022-11-06T05:13:45.203Z,4.75
2022-11-06T05:14:45.252Z,4.78
2022-11-06T05:15:45.171Z,4.84
2022-11-06T05:16:45.163Z,4.78
2022-11-06T05:17:45.170Z,4.78
2022-11-06T05:18:45.169Z,4.73
2022-11-06T05:19:45.135Z,4.73
2022-11-06T05:20:45.110Z,4.77
2022-11-06T05:21:53.226Z,4.75
2022-11-06T05:22:45.108Z,4.78
2022-11-06T05:23:45.084Z,4.78
2022-11-06T05:24:45.171Z,4.78
2022-11-06T05:25:45.061Z,4.77
2022-11-06T05:26:45.055Z,4.78
2022-11-06T05:27:45.071Z,4.73
2022-11-06T05:28:45.051Z,4.77
2022-11-06T05:29:45.040Z,4.82
2022-11-06T05:30:45.010Z,4.73
2022-11-06T05:31:44.987Z,4.78
2022-11-06T05:32:44.993Z,4.82
2022-11-06T05:33:44.999Z,4.82
2022-11-06T05:34:44.964Z,4.84
2022-11-06T05:35:44.973Z,4.89
2022-11-06T05:36:44.968Z,4.88
2022-11-06T05:37:44.928Z,4.89
2022-11-06T05:38:44.915Z,4.86
2022-11-06T05:39:44.941Z,4.89
2022-11-06T05:40:44.937Z,4.96
2022-11-06T05:41:44.899Z,4.85
2022-11-06T05:42:44.866Z,4.91
2022-11-06T05:43:44.853Z,4.89
2022-11-06T05:44:44.855Z,4.91
2022-11-06T05:45:44.856Z,4.99
2022-11-06T05:46:49.647Z,5.09
2022-11-06T05:47:45.823Z,4.99
2022-11-06T05:48:44.802Z,5.00
2022-11-06T05:49:44.787Z,4.96
2022-11-06T05:50:44.801Z,5.03
2022-11-06T05:51:44.794Z,5.02
2022-11-06T05:52:44.775Z,5.02
2022-11-06T05:53:44.748Z,5.12
2022-11-06T05:54:44.745Z,5.13
2022-11-06T05:55:44.722Z,5.13
2022-11-06T05:56:44.732Z,5.12
2022-11-06T05:57:44.735Z,5.20
2022-11-06T05:58:44.735Z,5.17
2022-11-06T05:59:44.697Z,5.25
2022-11-06T06:00:44.681Z,5.20
2022-11-06T06:01:44.962Z,5.15
2022-11-06T06:02:44.804Z,5.22
2022-11-06T06:03:44.674Z,5.17
2022-11-06T06:04:44.647Z,5.12
2022-11-06T06:05:44.621Z,5.22
2022-11-06T06:06:44.676Z,5.21
2022-11-06T06:07:44.601Z,5.20
2022-11-06T06:08:44.597Z,5.15
2022-11-06T06:09:44.607Z,5.15
2022-11-06T06:10:44.586Z,5.13
2022-11-06T06:11:44.552Z,5.18
2022-11-06T06:12:44.552Z,5.18
2022-11-06T06:13:44.533Z,5.15
2022-11-06T06:14:47.891Z,5.12
2022-11-06T06:15:45.520Z,5.13
2022-11-06T06:16:44.524Z,5.18
2022-11-06T06:17:44.474Z,5.06
2022-11-06T06:18:44.477Z,5.10
2022-11-06T06:19:44.486Z,5.07
2022-11-06T06:20:44.457Z,5.15
2022-11-06T06:21:44.455Z,5.12
2022-11-06T06:22:44.430Z,5.07
2022-11-06T06:23:44.409Z,5.10
2022-11-06T06:24:44.514Z,5.13
2022-11-06T06:25:44.410Z,5.20
2022-11-06T06:26:44.397Z,5.18
2022-11-06T06:27:44.402Z,5.17
2022-11-06T06:28:44.377Z,5.20
2022-11-06T06:29:44.363Z,5.21
2022-11-06T06:30:44.350Z,5.28
2022-11-06T06:31:44.376Z,5.21
2022-11-06T06:32:44.343Z,5.24
2022-11-06T06:33:44.334Z,5.31
2022-11-06T06:34:44.303Z,5.25
2022-11-06T06:35:44.280Z,5.30
2022-11-06T06:36:44.280Z,5.25
2022-11-06T06:37:44.288Z,5.28
2022-11-06T06:38:44.282Z,5.33
2022-11-06T06:39:44.231Z,5.28
2022-11-06T06:40:44.301Z,5.38
2022-11-06T06:41:44.225Z,5.30
2022-11-06T06:42:44.222Z,5.31
2022-11-06T06:43:44.191Z,5.33
2022-11-06T06:44:44.255Z,5.35
2022-11-06T06:45:44.165Z,5.33
2022-11-06T06:46:44.187Z,5.38
2022-11-06T06:47:44.159Z,5.40
2022-11-06T06:48:44.163Z,5.45
2022-11-06T06:49:44.141Z,5.36
2022-11-06T06:50:44.145Z,5.38
2022-11-06T06:51:44.099Z,5.39
2022-11-06T06:52:44.097Z,5.51
2022-11-06T06:53:44.089Z,5.46
2022-11-06T06:54:44.084Z,5.48
2022-11-06T06:55:44.092Z,5.51
2022-11-06T06:56:44.045Z,5.51
2022-11-06T06:57:44.032Z,5.57
2022-11-06T06:58:44.043Z,5.53
2022-11-06T06:59:44.044Z,5.63
2022-11-06T07:00:44.175Z,5.56
2022-11-06T07:01:44.201Z,5.64
2022-11-06T07:02:43.987Z,5.72
2022-11-06T07:03:43.981Z,5.65
2022-11-06T07:04:43.985Z,5.79
2022-11-06T07:05:43.977Z,5.72
2022-11-06T07:06:43.947Z,5.81
2022-11-06T07:07:43.954Z,5.75
2022-11-06T07:08:43.927Z,5.83
2022-11-06T07:09:43.924Z,5.75
2022-11-06T07:10:43.895Z,5.71
2022-11-06T07:11:43.906Z,5.85
2022-11-06T07:12:43.884Z,5.86
2022-11-06T07:13:43.860Z,5.94
2022-11-06T07:14:43.844Z,5.96
2022-11-06T07:15:43.840Z,5.91
2022-11-06T07:16:43.860Z,5.93
2022-11-06T07:17:43.831Z,5.86
2022-11-06T07:18:43.855Z,5.99
2022-11-06T07:19:43.794Z,5.93
2022-11-06T07:20:43.789Z,5.96
2022-11-06T07:21:43.776Z,5.93
2022-11-06T07:22:43.768Z,5.99
2022-11-06T07:23:43.743Z,5.93
2022-11-06T07:24:43.790Z,5.91
2022-11-06T07:25:43.733Z,5.90
2022-11-06T07:26:43.709Z,5.96
2022-11-06T07:27:43.712Z,5.90
2022-11-06T07:28:43.706Z,5.97
2022-11-06T07:29:43.708Z,6.03
2022-11-06T07:30:43.674Z,6.06
2022-11-06T07:31:43.655Z,5.99
2022-11-06T07:32:43.673Z,6.04
2022-11-06T07:33:43.637Z,6.00
2022-11-06T07:34:43.639Z,6.11
2022-11-06T07:35:43.634Z,6.11
2022-11-06T07:36:43.603Z,6.06
2022-11-06T07:37:43.614Z,6.17
2022-11-06T07:38:43.594Z,6.14
2022-11-06T07:39:43.575Z,6.06
2022-11-06T07:40:43.587Z,6.09
2022-11-06T07:41:43.582Z,6.14
2022-11-06T07:42:43.941Z,6.11
2022-11-06T07:43:43.598Z,6.17
2022-11-06T07:44:43.528Z,6.03
2022-11-06T07:45:43.514Z,6.00
2022-11-06T07:46:43.516Z,6.01
2022-11-06T07:47:43.512Z,5.96
2022-11-06T07:48:43.494Z,5.94
2022-11-06T07:49:46.837Z,5.96
2022-11-06T07:50:44.485Z,5.93
2022-11-06T07:51:43.451Z,5.90
2022-11-06T07:52:43.421Z,5.85
2022-11-06T07:53:43.458Z,5.86
2022-11-06T07:54:43.397Z,5.90
2022-11-06T07:55:43.421Z,5.89
2022-11-06T07:56:43.398Z,5.75
2022-11-06T07:57:43.404Z,5.83
2022-11-06T07:58:43.397Z,5.78
2022-11-06T07:59:43.343Z,5.86
2022-11-06T08:00:43.448Z,5.86
2022-11-06T08:01:43.535Z,5.91
2022-11-06T08:02:43.456Z,5.85
2022-11-06T08:03:43.321Z,5.91
2022-11-06T08:04:43.310Z,5.83
2022-11-06T08:05:43.305Z,5.89
2022-11-06T08:06:43.293Z,5.94
2022-11-06T08:07:43.259Z,5.86
2022-11-06T08:08:43.252Z,5.83
2022-11-06T08:09:43.257Z,5.83
2022-11-06T08:10:43.283Z,5.85
2022-11-06T08:11:43.211Z,5.85
2022-11-06T08:12:43.210Z,5.81
2022-11-06T08:13:43.213Z,5.71
2022-11-06T08:14:43.201Z,5.79
2022-11-06T08:15:43.205Z,5.83
2022-11-06T08:16:43.169Z,5.72
2022-11-06T08:17:43.145Z,5.65
2022-11-06T08:18:43.160Z,5.64
2022-11-06T08:19:43.133Z,5.61
2022-11-06T08:20:43.146Z,5.56
2022-11-06T08:21:43.132Z,5.60
2022-11-06T08:22:43.112Z,5.53
2022-11-06T08:23:43.081Z,5.58
2022-11-06T08:24:43.067Z,5.56
2022-11-06T08:25:43.086Z,5.53
2022-11-06T08:26:43.070Z,5.56
2022-11-06T08:27:43.068Z,5.57
2022-11-06T08:28:43.034Z,5.56
2022-11-06T08:29:43.055Z,5.54
2022-11-06T08:30:43.029Z,5.71
2022-11-06T08:31:43.000Z,5.65
2022-11-06T08:32:43.014Z,5.68
2022-11-06T08:33:42.975Z,5.65
2022-11-06T08:34:42.955Z,5.76
2022-11-06T08:35:42.965Z,5.74
2022-11-06T08:36:46.882Z,5.81
2022-11-06T08:37:43.924Z,5.86
2022-11-06T08:38:42.978Z,5.82
2022-11-06T08:39:42.902Z,5.85
2022-11-06T08:40:42.891Z,5.75
2022-11-06T08:41:42.903Z,5.83
2022-11-06T08:42:42.878Z,5.85
2022-11-06T08:43:42.876Z,5.86
2022-11-06T08:44:42.860Z,5.96
2022-11-06T08:45:42.837Z,5.90
2022-11-06T08:46:45.400Z,5.96
2022-11-06T08:47:43.844Z,6.03
2022-11-06T08:48:42.804Z,6.01
2022-11-06T08:49:42.814Z,6.11
2022-11-06T08:50:42.779Z,6.14
2022-11-06T08:51:42.767Z,6.15
2022-11-06T08:52:42.788Z,6.09
2022-11-06T08:53:42.834Z,6.08
2022-11-06T08:54:42.747Z,6.11
2022-11-06T08:55:42.750Z,6.15
2022-11-06T08:56:42.709Z,6.22
2022-11-06T08:57:42.702Z,6.18
2022-11-06T08:58:42.706Z,6.27
2022-11-06T08:59:42.712Z,6.22
2022-11-06T09:00:42.808Z,6.31
2022-11-06T09:01:43.548Z,6.33
2022-11-06T09:02:42.666Z,6.31
2022-11-06T09:03:42.637Z,6.30
2022-11-06T09:04:42.625Z,6.38
2022-11-06T09:05:42.656Z,6.36
2022-11-06T09:06:42.623Z,6.36
2022-11-06T09:07:42.589Z,6.38
2022-11-06T09:08:42.591Z,6.38
2022-11-06T09:09:42.575Z,6.51
2022-11-06T09:10:42.568Z,6.55
2022-11-06T09:11:42.590Z,6.56
2022-11-06T09:12:42.559Z,6.52
2022-11-06T09:13:42.522Z,6.54
2022-11-06T09:14:42.511Z,6.52
2022-11-06T09:15:42.527Z,6.54
2022-11-06T09:16:42.514Z,6.59
2022-11-06T09:17:42.506Z,6.54
2022-11-06T09:18:42.467Z,6.52
2022-11-06T09:19:42.455Z,6.55
2022-11-06T09:20:42.515Z,6.55
2022-11-06T09:21:42.433Z,6.52
2022-11-06T09:22:42.447Z,6.62
2022-11-06T09:23:42.448Z,6.58
2022-11-06T09:25:02.512Z,6.54
2022-11-06T09:25:43.429Z,6.49
2022-11-06T09:26:42.388Z,6.59
2022-11-06T09:27:42.376Z,6.69
2022-11-06T09:28:42.368Z,6.70
2022-11-06T09:29:42.399Z,6.80
2022-11-06T09:30:42.332Z,6.73
2022-11-06T09:31:42.335Z,6.81
2022-11-06T09:32:42.318Z,6.88
2022-11-06T09:33:42.342Z,6.91
2022-11-06T09:34:42.324Z,6.95
2022-11-06T09:35:42.323Z,6.98
2022-11-06T09:36:42.281Z,6.92
2022-11-06T09:37:42.257Z,6.98
2022-11-06T09:38:42.289Z,7.02
2022-11-06T09:39:42.254Z,6.97
2022-11-06T09:40:42.240Z,7.03
2022-11-06T09:41:42.213Z,7.03
2022-11-06T09:42:42.199Z,7.16
2022-11-06T09:44:43.199Z,7.20
2022-11-06T09:45:42.211Z,7.20
2022-11-06T09:46:42.183Z,7.28
2022-11-06T09:47:42.143Z,7.30
2022-11-06T09:48:42.132Z,7.42
2022-11-06T09:49:42.140Z,7.34
2022-11-06T09:50:42.135Z,7.34
2022-11-06T09:51:42.117Z,7.35
2022-11-06T09:52:42.089Z,7.32
2022-11-06T09:53:42.085Z,7.46
2022-11-06T09:54:42.068Z,7.43
2022-11-06T09:55:42.089Z,7.46
2022-11-06T09:56:42.098Z,7.46
2022-11-06T09:57:42.052Z,7.53
2022-11-06T09:58:42.037Z,7.43
2022-11-06T09:59:42.009Z,7.55
2022-11-06T10:00:42.118Z,7.61
2022-11-06T10:01:42.131Z,7.67
2022-11-06T10:02:42.046Z,7.71
2022-11-06T10:03:42.002Z,7.74
2022-11-06T10:04:41.959Z,7.74
2022-11-06T10:05:41.942Z,7.68
2022-11-06T10:06:41.961Z,7.77
2022-11-06T10:07:41.954Z,7.86
2022-11-06T10:08:41.947Z,7.86
2022-11-06T10:09:41.899Z,7.89
2022-11-06T10:10:41.910Z,7.87
2022-11-06T10:11:41.876Z,7.92
2022-11-06T10:12:41.992Z,7.92
2022-11-06T10:13:41.876Z,7.93
2022-11-06T10:14:41.883Z,7.87
2022-11-06T10:15:41.837Z,7.95
2022-11-06T10:16:41.818Z,7.98
2022-11-06T10:17:41.821Z,7.92
2022-11-06T10:18:41.808Z,7.90
2022-11-06T10:19:41.802Z,7.92
2022-11-06T10:20:41.828Z,7.90
2022-11-06T10:21:41.764Z,7.95
2022-11-06T10:22:41.756Z,7.97
2022-11-06T10:23:41.756Z,8.02
2022-11-06T10:24:41.760Z,7.90
2022-11-06T10:25:41.741Z,8.02
2022-11-06T10:26:41.710Z,7.97
2022-11-06T10:27:41.701Z,7.97
2022-11-06T10:28:41.704Z,8.04
2022-11-06T10:29:41.729Z,8.11
2022-11-06T10:30:41.694Z,8.15
2022-11-06T10:31:41.669Z,8.12
2022-11-06T10:32:41.640Z,8.19
2022-11-06T10:33:41.640Z,8.20
2022-11-06T10:34:41.658Z,8.18
2022-11-06T10:35:41.639Z,8.15
2022-11-06T10:36:45.002Z,8.18
2022-11-06T10:37:42.586Z,8.15
2022-11-06T10:38:41.577Z,8.26
2022-11-06T10:39:41.569Z,8.29
2022-11-06T10:40:41.598Z,8.28
2022-11-06T10:41:41.548Z,8.28
2022-11-06T10:42:41.546Z,8.41
2022-11-06T10:43:41.520Z,8.40
2022-11-06T10:44:41.618Z,8.38
2022-11-06T10:45:41.534Z,8.41
2022-11-06T10:46:41.500Z,8.45
2022-11-06T10:47:41.515Z,8.47
2022-11-06T10:48:41.866Z,8.48
2022-11-06T10:49:41.460Z,8.40
2022-11-06T10:50:41.440Z,8.55
2022-11-06T10:51:41.438Z,8.45
2022-11-06T10:52:41.419Z,8.43
2022-11-06T10:53:41.568Z,8.50
2022-11-06T10:54:41.396Z,8.50
2022-11-06T10:55:41.385Z,8.61
2022-11-06T10:56:41.371Z,8.53
2022-11-06T10:57:41.377Z,8.59
2022-11-06T10:58:41.359Z,8.53
2022-11-06T10:59:41.367Z,8.53
2022-11-06T11:00:41.382Z,8.65
2022-11-06T11:01:41.467Z,8.68
2022-11-06T11:02:41.452Z,8.65
2022-11-06T11:03:41.313Z,8.63
2022-11-06T11:04:41.298Z,8.71
2022-11-06T11:05:41.311Z,8.83
2022-11-06T11:06:41.267Z,8.89
2022-11-06T11:07:41.256Z,8.89
2022-11-06T11:08:41.248Z,8.89
2022-11-06T11:09:41.231Z,8.94
2022-11-06T11:10:41.237Z,9.02
2022-11-06T11:11:41.229Z,9.01
2022-11-06T11:12:41.192Z,9.10
2022-11-06T11:13:41.182Z,9.10
2022-11-06T11:14:41.190Z,9.10
2022-11-06T11:15:41.218Z,9.17
2022-11-06T11:16:41.219Z,9.17
2022-11-06T11:17:41.142Z,9.20
2022-11-06T11:18:41.137Z,9.17
2022-11-06T11:19:41.117Z,9.26
2022-11-06T11:20:41.122Z,9.21
2022-11-06T11:21:41.131Z,9.20
2022-11-06T11:22:41.172Z,9.24
2022-11-06T11:23:41.070Z,9.21
2022-11-06T11:24:41.068Z,9.23
2022-11-06T11:25:41.084Z,9.24
2022-11-06T11:26:41.040Z,9.28
2022-11-06T11:27:41.045Z,9.23
2022-11-06T11:28:41.039Z,9.21
2022-11-06T11:29:41.003Z,9.21
2022-11-06T11:30:40.999Z,9.21
2022-11-06T11:31:41.003Z,9.17
2022-11-06T11:32:41.017Z,9.18
2022-11-06T11:33:40.990Z,9.21
2022-11-06T11:34:46.372Z,9.14
2022-11-06T11:35:41.945Z,9.20
2022-11-06T11:36:40.932Z,9.17
2022-11-06T11:37:40.943Z,9.20
2022-11-06T11:38:40.915Z,9.18
2022-11-06T11:39:40.913Z,9.18
2022-11-06T11:40:40.895Z,9.10
2022-11-06T11:41:40.871Z,9.13
2022-11-06T11:42:40.886Z,9.20
2022-11-06T11:43:40.878Z,9.14
2022-11-06T11:44:40.904Z,9.14
2022-11-06T11:45:40.823Z,9.15
2022-11-06T11:46:40.814Z,9.26
2022-11-06T11:47:40.827Z,9.24
2022-11-06T11:48:40.823Z,9.31
2022-11-06T11:49:40.788Z,9.32
2022-11-06T11:50:40.784Z,9.33
2022-11-06T11:51:40.758Z,9.38
2022-11-06T11:52:42.748Z,9.40
2022-11-06T11:53:40.765Z,9.32
2022-11-06T11:54:40.750Z,9.33
2022-11-06T11:55:40.726Z,9.39
2022-11-06T11:57:03.582Z,9.36
2022-11-06T11:57:41.689Z,9.40
2022-11-06T11:58:40.680Z,9.39
2022-11-06T11:59:40.707Z,9.40
2022-11-06T12:00:40.667Z,9.39
2022-11-06T12:01:40.757Z,9.50
2022-11-06T12:02:40.976Z,9.51
2022-11-06T12:03:40.626Z,9.50
2022-11-06T12:04:40.658Z,9.53
2022-11-06T12:05:40.632Z,9.60
2022-11-06T12:06:40.599Z,9.66
2022-11-06T12:07:45.031Z,9.68
2022-11-06T12:08:41.575Z,9.64
2022-11-06T12:09:40.555Z,9.64
2022-11-06T12:10:40.612Z,9.68
2022-11-06T12:11:40.562Z,9.65
2022-11-06T12:12:40.540Z,9.74
2022-11-06T12:13:40.545Z,9.78
2022-11-06T12:14:40.502Z,9.75
2022-11-06T12:15:40.488Z,9.83
2022-11-06T12:16:40.512Z,9.79
2022-11-06T12:17:40.469Z,9.83
2022-11-06T12:18:40.470Z,9.76
2022-11-06T12:19:40.469Z,9.86
2022-11-06T12:20:40.451Z,9.87
2022-11-06T12:21:40.420Z,9.91
2022-11-06T12:22:40.434Z,9.91
2022-11-06T12:23:40.444Z,9.90
2022-11-06T12:24:40.416Z,9.91
2022-11-06T12:25:40.376Z,9.91
2022-11-06T12:26:40.382Z,9.89
2022-11-06T12:27:40.354Z,9.96
2022-11-06T12:28:40.346Z,9.97
2022-11-06T12:29:40.359Z,9.94
2022-11-06T12:30:40.345Z,9.97
2022-11-06T12:31:40.324Z,10.04
2022-11-06T12:32:40.298Z,10.01
2022-11-06T12:34:04.920Z,9.99
2022-11-06T12:34:41.293Z,10.04
2022-11-06T12:35:40.285Z,10.02
2022-11-06T12:36:40.273Z,10.05
2022-11-06T12:37:40.241Z,9.94
2022-11-06T12:38:40.245Z,10.02
2022-11-06T12:39:40.240Z,10.02
2022-11-06T12:40:40.217Z,9.91
2022-11-06T12:41:40.212Z,9.96
2022-11-06T12:42:40.222Z,9.93
2022-11-06T12:43:40.186Z,9.89
2022-11-06T12:44:40.165Z,9.93
2022-11-06T12:45:40.151Z,9.97
2022-11-06T12:46:40.159Z,9.97
2022-11-06T12:47:40.129Z,9.87
2022-11-06T12:48:40.137Z,10.01
2022-11-06T12:49:40.115Z,9.94
2022-11-06T12:50:40.116Z,9.97
2022-11-06T12:51:40.087Z,9.97
2022-11-06T12:52:40.108Z,10.05
2022-11-06T12:53:40.066Z,9.99
2022-11-06T12:54:40.076Z,9.99
2022-11-06T12:55:40.047Z,10.02
2022-11-06T12:56:40.050Z,10.02
2022-11-06T12:57:40.027Z,10.04
2022-11-06T12:58:40.029Z,10.09
2022-11-06T12:59:40.027Z,10.04
2022-11-06T13:00:39.984Z,10.14
2022-11-06T13:01:40.107Z,10.11
2022-11-06T13:02:40.033Z,10.09
2022-11-06T13:03:39.965Z,10.05
2022-11-06T13:04:39.967Z,10.11
2022-11-06T13:05:39.936Z,10.08
2022-11-06T13:06:39.920Z,10.11
2022-11-06T13:07:39.926Z,10.05
2022-11-06T13:08:39.918Z,10.09
2022-11-06T13:09:39.897Z,10.05
2022-11-06T13:10:39.898Z,10.05
2022-11-06T13:11:39.859Z,10.01
2022-11-06T13:12:39.858Z,9.97
2022-11-06T13:13:39.866Z,9.91
2022-11-06T13:14:39.837Z,9.91
2022-11-06T13:15:39.847Z,9.96
2022-11-06T13:16:39.804Z,9.94
2022-11-06T13:17:39.792Z,10.05
2022-11-06T13:18:39.798Z,10.02
2022-11-06T13:19:39.771Z,10.01